sensor_id;sensor_type;location;lat;lon;timestamp;P1;durP1;ratioP1;P2;durP2;ratioP2
32780;SDS011;19136;47.032;15.502;2023-01-10T00:02:14;5.28;;;2.45;;
32780;SDS011;19136;47.032;15.502;2023-01-10T00:04:40;8.57;;;2.75;;
32780;SDS011;19136;47.032;15.502;2023-01-10T00:07:05;5.38;;;2.83;;
32780;SDS011;19136;47.032;15.502;2023-01-10T00:09:31;4.88;;;2.50;;
32780;SDS011;19136;47.032;15.502;2023-01-10T00:11:56;6.38;;;2.75;;
32780;SDS011;19136;47.032;15.502;2023-01-10T00:14:40;8.43;;;3.40;;
32780;SDS011;19136;47.032;15.502;2023-01-10T00:17:05;5.32;;;3.42;;
32780;SDS011;19136;47.032;15.502;2023-01-10T00:19:31;8.65;;;3.78;;
32780;SDS011;19136;47.032;15.502;2023-01-10T00:21:56;12.27;;;4.45;;
32780;SDS011;19136;47.032;15.502;2023-01-10T00:24:26;9.63;;;3.60;;
32780;SDS011;19136;47.032;15.502;2023-01-10T00:26:52;8.85;;;3.60;;
32780;SDS011;19136;47.032;15.502;2023-01-10T00:29:28;14.18;;;5.53;;
32780;SDS011;19136;47.032;15.502;2023-01-10T00:31:55;9.95;;;4.45;;
32780;SDS011;19136;47.032;15.502;2023-01-10T00:34:24;9.13;;;4.43;;
32780;SDS011;19136;47.032;15.502;2023-01-10T00:36:49;9.20;;;3.97;;
32780;SDS011;19136;47.032;15.502;2023-01-10T00:39:15;7.47;;;3.83;;
32780;SDS011;19136;47.032;15.502;2023-01-10T00:41:41;10.13;;;4.53;;
32780;SDS011;19136;47.032;15.502;2023-01-10T00:44:25;11.93;;;5.20;;
32780;SDS011;19136;47.032;15.502;2023-01-10T00:46:51;11.98;;;5.22;;
32780;SDS011;19136;47.032;15.502;2023-01-10T00:49:16;15.48;;;6.07;;
32780;SDS011;19136;47.032;15.502;2023-01-10T00:51:42;9.98;;;5.60;;
32780;SDS011;19136;47.032;15.502;2023-01-10T00:54:08;12.27;;;4.90;;
32780;SDS011;19136;47.032;15.502;2023-01-10T00:56:33;12.82;;;5.45;;
32780;SDS011;19136;47.032;15.502;2023-01-10T00:58:59;13.43;;;6.55;;
32780;SDS011;19136;47.032;15.502;2023-01-10T01:01:24;11.93;;;5.90;;
32780;SDS011;19136;47.032;15.502;2023-01-10T01:03:49;14.18;;;6.20;;
32780;SDS011;19136;47.032;15.502;2023-01-10T01:06:15;13.70;;;6.50;;
32780;SDS011;19136;47.032;15.502;2023-01-10T01:08:40;15.63;;;6.65;;
32780;SDS011;19136;47.032;15.502;2023-01-10T01:11:05;18.05;;;7.55;;
32780;SDS011;19136;47.032;15.502;2023-01-10T01:13:31;18.48;;;7.47;;
32780;SDS011;19136;47.032;15.502;2023-01-10T01:15:56;13.77;;;6.65;;
32780;SDS011;19136;47.032;15.502;2023-01-10T01:18:22;13.70;;;5.97;;
32780;SDS011;19136;47.032;15.502;2023-01-10T01:20:51;16.55;;;5.75;;
32780;SDS011;19136;47.032;15.502;2023-01-10T01:23:16;14.82;;;7.45;;
32780;SDS011;19136;47.032;15.502;2023-01-10T01:25:42;13.07;;;6.22;;
32780;SDS011;19136;47.032;15.502;2023-01-10T01:28:08;13.95;;;4.95;;
32780;SDS011;19136;47.032;15.502;2023-01-10T01:30:33;9.25;;;5.13;;
32780;SDS011;19136;47.032;15.502;2023-01-10T01:32:58;11.32;;;5.10;;
32780;SDS011;19136;47.032;15.502;2023-01-10T01:35:24;10.32;;;5.00;;
32780;SDS011;19136;47.032;15.502;2023-01-10T01:37:49;9.43;;;4.68;;
32780;SDS011;19136;47.032;15.502;2023-01-10T01:40:21;10.15;;;4.50;;
32780;SDS011;19136;47.032;15.502;2023-01-10T01:42:47;12.57;;;5.35;;
32780;SDS011;19136;47.032;15.502;2023-01-10T01:50:16;8.18;;;4.38;;
32780;SDS011;19136;47.032;15.502;2023-01-10T01:52:42;7.30;;;3.97;;
32780;SDS011;19136;47.032;15.502;2023-01-10T01:55:07;7.55;;;4.53;;
32780;SDS011;19136;47.032;15.502;2023-01-10T01:57:33;8.93;;;5.07;;
32780;SDS011;19136;47.032;15.502;2023-01-10T01:59:58;8.27;;;5.18;;
32780;SDS011;19136;47.032;15.502;2023-01-10T02:02:26;7.90;;;4.32;;
32780;SDS011;19136;47.032;15.502;2023-01-10T02:04:54;9.23;;;5.28;;
32780;SDS011;19136;47.032;15.502;2023-01-10T02:07:20;9.57;;;4.05;;
32780;SDS011;19136;47.032;15.502;2023-01-10T02:12:15;10.82;;;3.83;;
32780;SDS011;19136;47.032;15.502;2023-01-10T02:14:41;6.68;;;3.35;;
32780;SDS011;19136;47.032;15.502;2023-01-10T02:17:10;5.43;;;3.20;;
32780;SDS011;19136;47.032;15.502;2023-01-10T02:37:29;0.98;;;0.40;;
32780;SDS011;19136;47.032;15.502;2023-01-10T02:39:57;0.90;;;0.40;;
32780;SDS011;19136;47.032;15.502;2023-01-10T02:42:46;0.50;;;0.32;;
32780;SDS011;19136;47.032;15.502;2023-01-10T02:45:11;0.88;;;0.28;;
32780;SDS011;19136;47.032;15.502;2023-01-10T02:47:38;0.85;;;0.40;;
32780;SDS011;19136;47.032;15.502;2023-01-10T02:52:48;0.63;;;0.40;;
32780;SDS011;19136;47.032;15.502;2023-01-10T02:55:13;5.15;;;0.35;;
32780;SDS011;19136;47.032;15.502;2023-01-10T02:57:49;0.45;;;0.20;;
32780;SDS011;19136;47.032;15.502;2023-01-10T03:05:41;1.02;;;0.10;;
32780;SDS011;19136;47.032;15.502;2023-01-10T03:13:27;0.40;;;0.30;;
32780;SDS011;19136;47.032;15.502;2023-01-10T03:15:53;0.50;;;0.30;;
32780;SDS011;19136;47.032;15.502;2023-01-10T03:18:21;0.10;;;0.10;;
32780;SDS011;19136;47.032;15.502;2023-01-10T03:20:48;0.10;;;0.10;;
32780;SDS011;19136;47.032;15.502;2023-01-10T03:23:15;0.52;;;0.15;;
32780;SDS011;19136;47.032;15.502;2023-01-10T03:25:41;0.57;;;0.20;;
32780;SDS011;19136;47.032;15.502;2023-01-10T03:28:09;0.52;;;0.20;;
32780;SDS011;19136;47.032;15.502;2023-01-10T03:30:49;0.52;;;0.30;;
32780;SDS011;19136;47.032;15.502;2023-01-10T03:33:17;0.90;;;0.20;;
32780;SDS011;19136;47.032;15.502;2023-01-10T03:35:51;0.20;;;0.13;;
32780;SDS011;19136;47.032;15.502;2023-01-10T03:39:05;1.10;;;0.10;;
32780;SDS011;19136;47.032;15.502;2023-01-10T03:41:20;1.13;;;0.40;;
32780;SDS011;19136;47.032;15.502;2023-01-10T03:44:03;0.68;;;0.20;;
32780;SDS011;19136;47.032;15.502;2023-01-10T03:47:01;0.90;;;0.40;;
32780;SDS011;19136;47.032;15.502;2023-01-10T03:49:29;0.63;;;0.38;;
32780;SDS011;19136;47.032;15.502;2023-01-10T03:51:55;0.70;;;0.20;;
32780;SDS011;19136;47.032;15.502;2023-01-10T03:54:21;0.22;;;0.20;;
32780;SDS011;19136;47.032;15.502;2023-01-10T03:56:47;0.30;;;0.20;;
32780;SDS011;19136;47.032;15.502;2023-01-10T03:59:14;8.10;;;0.22;;
32780;SDS011;19136;47.032;15.502;2023-01-10T04:01:40;0.40;;;0.20;;
32780;SDS011;19136;47.032;15.502;2023-01-10T04:04:05;2.75;;;0.20;;
32780;SDS011;19136;47.032;15.502;2023-01-10T04:06:31;0.10;;;0.10;;
32780;SDS011;19136;47.032;15.502;2023-01-10T04:08:56;0.10;;;0.10;;
32780;SDS011;19136;47.032;15.502;2023-01-10T04:11:21;0.10;;;0.10;;
32780;SDS011;19136;47.032;15.502;2023-01-10T04:13:47;0.85;;;0.28;;
32780;SDS011;19136;47.032;15.502;2023-01-10T04:16:12;0.10;;;0.10;;
32780;SDS011;19136;47.032;15.502;2023-01-10T04:18:38;1.33;;;0.32;;
32780;SDS011;19136;47.032;15.502;2023-01-10T04:21:03;0.45;;;0.10;;
32780;SDS011;19136;47.032;15.502;2023-01-10T04:23:28;0.77;;;0.25;;
32780;SDS011;19136;47.032;15.502;2023-01-10T04:25:54;5.15;;;2.25;;
32780;SDS011;19136;47.032;15.502;2023-01-10T04:28:19;6.45;;;2.35;;
32780;SDS011;19136;47.032;15.502;2023-01-10T04:30:45;0.63;;;0.60;;
32780;SDS011;19136;47.032;15.502;2023-01-10T04:33:10;0.30;;;0.20;;
32780;SDS011;19136;47.032;15.502;2023-01-10T04:35:36;0.50;;;0.20;;
32780;SDS011;19136;47.032;15.502;2023-01-10T04:38:02;1.15;;;0.60;;
32780;SDS011;19136;47.032;15.502;2023-01-10T04:40:27;0.32;;;0.20;;
32780;SDS011;19136;47.032;15.502;2023-01-10T04:42:52;1.75;;;0.70;;
32780;SDS011;19136;47.032;15.502;2023-01-10T04:45:18;0.77;;;0.50;;
32780;SDS011;19136;47.032;15.502;2023-01-10T04:47:49;0.25;;;0.10;;
32780;SDS011;19136;47.032;15.502;2023-01-10T04:50:15;0.68;;;0.17;;
32780;SDS011;19136;47.032;15.502;2023-01-10T04:52:40;0.38;;;0.10;;
32780;SDS011;19136;47.032;15.502;2023-01-10T04:55:07;0.73;;;0.50;;
32780;SDS011;19136;47.032;15.502;2023-01-10T04:57:33;1.88;;;1.20;;
32780;SDS011;19136;47.032;15.502;2023-01-10T04:59:58;0.75;;;0.40;;
32780;SDS011;19136;47.032;15.502;2023-01-10T05:02:23;0.50;;;0.22;;
32780;SDS011;19136;47.032;15.502;2023-01-10T05:04:49;1.45;;;0.20;;
32780;SDS011;19136;47.032;15.502;2023-01-10T05:07:14;5.45;;;0.57;;
32780;SDS011;19136;47.032;15.502;2023-01-10T05:09:39;0.40;;;0.17;;
32780;SDS011;19136;47.032;15.502;2023-01-10T05:12:06;0.10;;;0.10;;
32780;SDS011;19136;47.032;15.502;2023-01-10T05:14:32;0.20;;;0.20;;
32780;SDS011;19136;47.032;15.502;2023-01-10T05:16:57;0.20;;;0.17;;
32780;SDS011;19136;47.032;15.502;2023-01-10T05:19:23;0.68;;;0.40;;
32780;SDS011;19136;47.032;15.502;2023-01-10T05:21:48;1.73;;;0.40;;
32780;SDS011;19136;47.032;15.502;2023-01-10T05:24:16;1.00;;;0.50;;
32780;SDS011;19136;47.032;15.502;2023-01-10T05:26:41;0.98;;;0.40;;
32780;SDS011;19136;47.032;15.502;2023-01-10T05:29:09;0.35;;;0.25;;
32780;SDS011;19136;47.032;15.502;2023-01-10T05:31:34;0.13;;;0.10;;
32780;SDS011;19136;47.032;15.502;2023-01-10T05:33:59;0.10;;;0.10;;
32780;SDS011;19136;47.032;15.502;2023-01-10T05:36:25;1.70;;;0.30;;
32780;SDS011;19136;47.032;15.502;2023-01-10T05:38:51;0.63;;;0.22;;
32780;SDS011;19136;47.032;15.502;2023-01-10T05:41:16;0.45;;;0.10;;
32780;SDS011;19136;47.032;15.502;2023-01-10T05:43:42;0.30;;;0.30;;
32780;SDS011;19136;47.032;15.502;2023-01-10T05:46:07;0.68;;;0.15;;
32780;SDS011;19136;47.032;15.502;2023-01-10T05:48:33;0.10;;;0.10;;
32780;SDS011;19136;47.032;15.502;2023-01-10T05:50:58;0.13;;;0.10;;
32780;SDS011;19136;47.032;15.502;2023-01-10T05:53:24;4.97;;;0.20;;
32780;SDS011;19136;47.032;15.502;2023-01-10T05:55:56;0.32;;;0.10;;
32780;SDS011;19136;47.032;15.502;2023-01-10T05:58:21;0.43;;;0.20;;
32780;SDS011;19136;47.032;15.502;2023-01-10T06:00:47;1.05;;;0.43;;
32780;SDS011;19136;47.032;15.502;2023-01-10T06:03:13;0.43;;;0.30;;
32780;SDS011;19136;47.032;15.502;2023-01-10T06:05:38;0.20;;;0.20;;
32780;SDS011;19136;47.032;15.502;2023-01-10T06:08:04;0.28;;;0.20;;
32780;SDS011;19136;47.032;15.502;2023-01-10T06:10:29;0.30;;;0.10;;
32780;SDS011;19136;47.032;15.502;2023-01-10T06:12:54;0.32;;;0.30;;
32780;SDS011;19136;47.032;15.502;2023-01-10T06:15:20;0.45;;;0.30;;
32780;SDS011;19136;47.032;15.502;2023-01-10T06:17:45;0.30;;;0.20;;
32780;SDS011;19136;47.032;15.502;2023-01-10T06:20:11;0.28;;;0.25;;
32780;SDS011;19136;47.032;15.502;2023-01-10T06:22:38;0.40;;;0.28;;
32780;SDS011;19136;47.032;15.502;2023-01-10T06:25:04;4.32;;;1.20;;
32780;SDS011;19136;47.032;15.502;2023-01-10T06:27:29;1.17;;;0.25;;
32780;SDS011;19136;47.032;15.502;2023-01-10T06:29:55;1.10;;;0.30;;
32780;SDS011;19136;47.032;15.502;2023-01-10T06:32:20;2.55;;;0.90;;
32780;SDS011;19136;47.032;15.502;2023-01-10T06:34:46;0.93;;;0.55;;
32780;SDS011;19136;47.032;15.502;2023-01-10T06:37:11;2.05;;;0.70;;
32780;SDS011;19136;47.032;15.502;2023-01-10T06:39:36;0.93;;;0.40;;
32780;SDS011;19136;47.032;15.502;2023-01-10T06:42:03;0.40;;;0.30;;
32780;SDS011;19136;47.032;15.502;2023-01-10T06:44:29;4.32;;;0.40;;
32780;SDS011;19136;47.032;15.502;2023-01-10T06:46:54;0.52;;;0.30;;
32780;SDS011;19136;47.032;15.502;2023-01-10T06:49:19;0.57;;;0.30;;
32780;SDS011;19136;47.032;15.502;2023-01-10T06:51:45;4.95;;;0.50;;
32780;SDS011;19136;47.032;15.502;2023-01-10T06:54:10;2.92;;;1.58;;
32780;SDS011;19136;47.032;15.502;2023-01-10T06:56:35;1.88;;;0.77;;
32780;SDS011;19136;47.032;15.502;2023-01-10T06:59:01;1.58;;;0.80;;
32780;SDS011;19136;47.032;15.502;2023-01-10T07:01:26;1.02;;;0.35;;
32780;SDS011;19136;47.032;15.502;2023-01-10T07:03:52;0.47;;;0.30;;
32780;SDS011;19136;47.032;15.502;2023-01-10T07:06:17;0.28;;;0.20;;
32780;SDS011;19136;47.032;15.502;2023-01-10T07:08:43;1.27;;;0.40;;
32780;SDS011;19136;47.032;15.502;2023-01-10T07:11:10;4.18;;;0.50;;
32780;SDS011;19136;47.032;15.502;2023-01-10T07:13:36;0.43;;;0.30;;
32780;SDS011;19136;47.032;15.502;2023-01-10T07:16:02;0.15;;;0.15;;
32780;SDS011;19136;47.032;15.502;2023-01-10T07:18:27;0.40;;;0.10;;
32780;SDS011;19136;47.032;15.502;2023-01-10T07:20:53;0.10;;;0.10;;
32780;SDS011;19136;47.032;15.502;2023-01-10T07:23:19;2.72;;;0.22;;
32780;SDS011;19136;47.032;15.502;2023-01-10T07:25:44;0.35;;;0.13;;
32780;SDS011;19136;47.032;15.502;2023-01-10T07:28:10;1.20;;;0.30;;
32780;SDS011;19136;47.032;15.502;2023-01-10T07:30:35;0.70;;;0.30;;
32780;SDS011;19136;47.032;15.502;2023-01-10T07:33:01;0.85;;;0.20;;
32780;SDS011;19136;47.032;15.502;2023-01-10T07:35:28;0.22;;;0.20;;
32780;SDS011;19136;47.032;15.502;2023-01-10T07:37:56;0.22;;;0.10;;
32780;SDS011;19136;47.032;15.502;2023-01-10T07:40:22;0.43;;;0.22;;
32780;SDS011;19136;47.032;15.502;2023-01-10T07:42:47;0.25;;;0.10;;
32780;SDS011;19136;47.032;15.502;2023-01-10T07:45:12;0.45;;;0.10;;
32780;SDS011;19136;47.032;15.502;2023-01-10T07:47:38;1.58;;;0.30;;
32780;SDS011;19136;47.032;15.502;2023-01-10T07:50:03;1.42;;;0.20;;
32780;SDS011;19136;47.032;15.502;2023-01-10T07:52:29;3.65;;;0.30;;
32780;SDS011;19136;47.032;15.502;2023-01-10T07:54:54;1.00;;;0.30;;
32780;SDS011;19136;47.032;15.502;2023-01-10T07:57:20;0.45;;;0.30;;
32780;SDS011;19136;47.032;15.502;2023-01-10T07:59:45;1.05;;;0.30;;
32780;SDS011;19136;47.032;15.502;2023-01-10T08:02:10;2.47;;;0.35;;
32780;SDS011;19136;47.032;15.502;2023-01-10T08:04:36;1.65;;;0.25;;
32780;SDS011;19136;47.032;15.502;2023-01-10T08:07:02;0.55;;;0.20;;
32780;SDS011;19136;47.032;15.502;2023-01-10T08:09:28;1.05;;;0.28;;
32780;SDS011;19136;47.032;15.502;2023-01-10T08:11:53;0.57;;;0.30;;
32780;SDS011;19136;47.032;15.502;2023-01-10T08:14:18;0.30;;;0.20;;
32780;SDS011;19136;47.032;15.502;2023-01-10T08:16:44;0.20;;;0.20;;
32780;SDS011;19136;47.032;15.502;2023-01-10T08:19:09;0.43;;;0.20;;
32780;SDS011;19136;47.032;15.502;2023-01-10T08:21:36;0.75;;;0.30;;
32780;SDS011;19136;47.032;15.502;2023-01-10T08:24:01;5.25;;;0.20;;
32780;SDS011;19136;47.032;15.502;2023-01-10T08:26:27;2.20;;;0.20;;
32780;SDS011;19136;47.032;15.502;2023-01-10T08:28:52;3.88;;;0.63;;
32780;SDS011;19136;47.032;15.502;2023-01-10T08:31:18;1.15;;;0.68;;
32780;SDS011;19136;47.032;15.502;2023-01-10T08:33:43;0.40;;;0.20;;
32780;SDS011;19136;47.032;15.502;2023-01-10T08:36:18;0.65;;;0.40;;
32780;SDS011;19136;47.032;15.502;2023-01-10T08:38:44;1.60;;;0.68;;
32780;SDS011;19136;47.032;15.502;2023-01-10T08:41:09;1.10;;;0.30;;
32780;SDS011;19136;47.032;15.502;2023-01-10T08:43:35;1.52;;;0.80;;
32780;SDS011;19136;47.032;15.502;2023-01-10T08:46:00;0.55;;;0.30;;
32780;SDS011;19136;47.032;15.502;2023-01-10T08:48:25;2.47;;;0.80;;
32780;SDS011;19136;47.032;15.502;2023-01-10T08:50:51;1.35;;;0.63;;
32780;SDS011;19136;47.032;15.502;2023-01-10T08:53:16;3.83;;;0.60;;
32780;SDS011;19136;47.032;15.502;2023-01-10T08:55:41;0.50;;;0.40;;
32780;SDS011;19136;47.032;15.502;2023-01-10T08:58:07;0.70;;;0.30;;
32780;SDS011;19136;47.032;15.502;2023-01-10T09:00:33;0.85;;;0.20;;
32780;SDS011;19136;47.032;15.502;2023-01-10T09:02:58;1.25;;;0.30;;
32780;SDS011;19136;47.032;15.502;2023-01-10T09:05:23;0.50;;;0.30;;
32780;SDS011;19136;47.032;15.502;2023-01-10T09:07:50;0.20;;;0.20;;
32780;SDS011;19136;47.032;15.502;2023-01-10T09:10:15;0.77;;;0.40;;
32780;SDS011;19136;47.032;15.502;2023-01-10T09:12:41;0.30;;;0.30;;
32780;SDS011;19136;47.032;15.502;2023-01-10T09:15:22;1.27;;;0.40;;
32780;SDS011;19136;47.032;15.502;2023-01-10T09:17:48;0.20;;;0.20;;
32780;SDS011;19136;47.032;15.502;2023-01-10T09:20:16;2.38;;;0.30;;
32780;SDS011;19136;47.032;15.502;2023-01-10T09:22:41;0.82;;;0.40;;
32780;SDS011;19136;47.032;15.502;2023-01-10T09:25:07;1.27;;;0.60;;
32780;SDS011;19136;47.032;15.502;2023-01-10T09:27:32;5.00;;;0.60;;
32780;SDS011;19136;47.032;15.502;2023-01-10T09:29:58;3.35;;;1.00;;
32780;SDS011;19136;47.032;15.502;2023-01-10T09:32:24;2.17;;;0.50;;
32780;SDS011;19136;47.032;15.502;2023-01-10T09:34:49;0.50;;;0.20;;
32780;SDS011;19136;47.032;15.502;2023-01-10T09:37:14;2.20;;;0.82;;
32780;SDS011;19136;47.032;15.502;2023-01-10T09:39:40;1.45;;;0.45;;
32780;SDS011;19136;47.032;15.502;2023-01-10T09:47:21;0.85;;;0.20;;
32780;SDS011;19136;47.032;15.502;2023-01-10T09:49:59;0.17;;;0.15;;
32780;SDS011;19136;47.032;15.502;2023-01-10T09:52:28;0.65;;;0.28;;
32780;SDS011;19136;47.032;15.502;2023-01-10T09:54:54;3.78;;;1.00;;
32780;SDS011;19136;47.032;15.502;2023-01-10T09:57:21;1.27;;;0.32;;
32780;SDS011;19136;47.032;15.502;2023-01-10T09:59:47;0.63;;;0.30;;
32780;SDS011;19136;47.032;15.502;2023-01-10T10:07:34;1.02;;;0.47;;
32780;SDS011;19136;47.032;15.502;2023-01-10T10:10:00;1.27;;;0.30;;
32780;SDS011;19136;47.032;15.502;2023-01-10T10:12:29;1.40;;;0.30;;
32780;SDS011;19136;47.032;15.502;2023-01-10T10:15:06;1.05;;;0.40;;
32780;SDS011;19136;47.032;15.502;2023-01-10T10:20:18;0.10;;;0.10;;
32780;SDS011;19136;47.032;15.502;2023-01-10T10:31:20;1.35;;;0.30;;
32780;SDS011;19136;47.032;15.502;2023-01-10T10:33:42;0.77;;;0.40;;
32780;SDS011;19136;47.032;15.502;2023-01-10T10:36:10;1.30;;;0.30;;
32780;SDS011;19136;47.032;15.502;2023-01-10T10:38:40;0.98;;;0.28;;
32780;SDS011;19136;47.032;15.502;2023-01-10T10:41:20;0.73;;;0.40;;
32780;SDS011;19136;47.032;15.502;2023-01-10T10:43:49;0.73;;;0.35;;
32780;SDS011;19136;47.032;15.502;2023-01-10T10:46:15;0.93;;;0.40;;
32780;SDS011;19136;47.032;15.502;2023-01-10T10:48:56;0.88;;;0.30;;
32780;SDS011;19136;47.032;15.502;2023-01-10T10:53:48;1.55;;;0.55;;
32780;SDS011;19136;47.032;15.502;2023-01-10T10:56:15;1.13;;;0.30;;
32780;SDS011;19136;47.032;15.502;2023-01-10T10:58:42;0.52;;;0.20;;
32780;SDS011;19136;47.032;15.502;2023-01-10T11:01:14;0.50;;;0.30;;
32780;SDS011;19136;47.032;15.502;2023-01-10T11:03:41;0.98;;;0.20;;
32780;SDS011;19136;47.032;15.502;2023-01-10T11:06:08;1.30;;;0.30;;
32780;SDS011;19136;47.032;15.502;2023-01-10T11:08:35;0.55;;;0.30;;
32780;SDS011;19136;47.032;15.502;2023-01-10T11:11:01;2.00;;;0.30;;
32780;SDS011;19136;47.032;15.502;2023-01-10T11:15:56;0.20;;;0.20;;
32780;SDS011;19136;47.032;15.502;2023-01-10T11:18:23;0.10;;;0.10;;
32780;SDS011;19136;47.032;15.502;2023-01-10T11:20:53;1.75;;;0.43;;
32780;SDS011;19136;47.032;15.502;2023-01-10T11:28:51;0.60;;;0.20;;
32780;SDS011;19136;47.032;15.502;2023-01-10T11:31:26;0.77;;;0.32;;
32780;SDS011;19136;47.032;15.502;2023-01-10T11:33:52;0.40;;;0.22;;
32780;SDS011;19136;47.032;15.502;2023-01-10T11:36:17;0.43;;;0.30;;
32780;SDS011;19136;47.032;15.502;2023-01-10T11:38:43;0.60;;;0.32;;
32780;SDS011;19136;47.032;15.502;2023-01-10T11:41:24;2.47;;;0.25;;
32780;SDS011;19136;47.032;15.502;2023-01-10T11:43:49;0.90;;;0.20;;
32780;SDS011;19136;47.032;15.502;2023-01-10T11:46:15;2.45;;;0.35;;
32780;SDS011;19136;47.032;15.502;2023-01-10T11:48:42;0.88;;;0.50;;
32780;SDS011;19136;47.032;15.502;2023-01-10T11:51:44;1.63;;;0.85;;
32780;SDS011;19136;47.032;15.502;2023-01-10T11:54:15;2.47;;;0.20;;
32780;SDS011;19136;47.032;15.502;2023-01-10T11:56:41;0.50;;;0.30;;
32780;SDS011;19136;47.032;15.502;2023-01-10T11:59:08;0.68;;;0.30;;
32780;SDS011;19136;47.032;15.502;2023-01-10T12:04:01;1.15;;;0.40;;
32780;SDS011;19136;47.032;15.502;2023-01-10T12:06:27;0.57;;;0.30;;
32780;SDS011;19136;47.032;15.502;2023-01-10T12:08:53;2.25;;;0.20;;
32780;SDS011;19136;47.032;15.502;2023-01-10T12:13:52;0.22;;;0.20;;
32780;SDS011;19136;47.032;15.502;2023-01-10T12:16:19;0.22;;;0.20;;
32780;SDS011;19136;47.032;15.502;2023-01-10T12:18:46;1.10;;;0.40;;
32780;SDS011;19136;47.032;15.502;2023-01-10T12:21:13;0.77;;;0.30;;
32780;SDS011;19136;47.032;15.502;2023-01-10T12:23:39;0.55;;;0.22;;
32780;SDS011;19136;47.032;15.502;2023-01-10T12:26:08;3.80;;;0.30;;
32780;SDS011;19136;47.032;15.502;2023-01-10T12:28:34;0.85;;;0.30;;
32780;SDS011;19136;47.032;15.502;2023-01-10T12:31:00;1.15;;;0.40;;
32780;SDS011;19136;47.032;15.502;2023-01-10T12:33:27;0.28;;;0.20;;
32780;SDS011;19136;47.032;15.502;2023-01-10T12:35:56;0.80;;;0.20;;
32780;SDS011;19136;47.032;15.502;2023-01-10T12:41:07;0.38;;;0.20;;
32780;SDS011;19136;47.032;15.502;2023-01-10T12:43:34;0.85;;;0.40;;
32780;SDS011;19136;47.032;15.502;2023-01-10T12:46:22;1.05;;;0.50;;
32780;SDS011;19136;47.032;15.502;2023-01-10T12:48:52;0.88;;;0.30;;
32780;SDS011;19136;47.032;15.502;2023-01-10T12:51:19;0.52;;;0.35;;
32780;SDS011;19136;47.032;15.502;2023-01-10T12:53:47;0.30;;;0.20;;
32780;SDS011;19136;47.032;15.502;2023-01-10T12:56:15;0.60;;;0.30;;
32780;SDS011;19136;47.032;15.502;2023-01-10T12:58:47;0.45;;;0.30;;
32780;SDS011;19136;47.032;15.502;2023-01-10T13:01:17;0.43;;;0.30;;
32780;SDS011;19136;47.032;15.502;2023-01-10T13:03:44;0.50;;;0.20;;
32780;SDS011;19136;47.032;15.502;2023-01-10T13:06:52;0.20;;;0.20;;
32780;SDS011;19136;47.032;15.502;2023-01-10T13:09:00;0.63;;;0.20;;
32780;SDS011;19136;47.032;15.502;2023-01-10T13:11:29;0.35;;;0.20;;
32780;SDS011;19136;47.032;15.502;2023-01-10T13:13:58;0.95;;;0.38;;
32780;SDS011;19136;47.032;15.502;2023-01-10T13:19:35;5.28;;;2.55;;
32780;SDS011;19136;47.032;15.502;2023-01-10T13:21:45;3.53;;;1.15;;
32780;SDS011;19136;47.032;15.502;2023-01-10T13:26:47;3.50;;;1.90;;
32780;SDS011;19136;47.032;15.502;2023-01-10T13:29:23;1.27;;;0.65;;
32780;SDS011;19136;47.032;15.502;2023-01-10T13:31:49;1.70;;;0.95;;
32780;SDS011;19136;47.032;15.502;2023-01-10T13:34:21;6.15;;;1.60;;
32780;SDS011;19136;47.032;15.502;2023-01-10T13:39:34;0.73;;;0.50;;
32780;SDS011;19136;47.032;15.502;2023-01-10T13:50:48;1.58;;;0.63;;
32780;SDS011;19136;47.032;15.502;2023-01-10T14:00:46;1.27;;;0.60;;
32780;SDS011;19136;47.032;15.502;2023-01-10T14:06:01;1.05;;;0.40;;
32780;SDS011;19136;47.032;15.502;2023-01-10T14:08:30;3.95;;;0.52;;
32780;SDS011;19136;47.032;15.502;2023-01-10T14:11:04;3.65;;;0.43;;
32780;SDS011;19136;47.032;15.502;2023-01-10T14:13:29;1.10;;;0.47;;
32780;SDS011;19136;47.032;15.502;2023-01-10T14:15:54;1.75;;;0.32;;
32780;SDS011;19136;47.032;15.502;2023-01-10T14:18:24;0.88;;;0.40;;
32780;SDS011;19136;47.032;15.502;2023-01-10T14:20:59;1.42;;;0.65;;
32780;SDS011;19136;47.032;15.502;2023-01-10T14:23:47;0.28;;;0.20;;
32780;SDS011;19136;47.032;15.502;2023-01-10T14:26:21;0.30;;;0.30;;
32780;SDS011;19136;47.032;15.502;2023-01-10T14:28:47;0.95;;;0.40;;
32780;SDS011;19136;47.032;15.502;2023-01-10T14:31:17;1.75;;;0.40;;
32780;SDS011;19136;47.032;15.502;2023-01-10T14:33:43;0.70;;;0.30;;
32780;SDS011;19136;47.032;15.502;2023-01-10T14:36:30;0.40;;;0.30;;
32780;SDS011;19136;47.032;15.502;2023-01-10T14:39:01;4.05;;;0.55;;
32780;SDS011;19136;47.032;15.502;2023-01-10T14:41:30;4.13;;;0.73;;
32780;SDS011;19136;47.032;15.502;2023-01-10T14:46:25;0.50;;;0.40;;
32780;SDS011;19136;47.032;15.502;2023-01-10T14:48:53;1.05;;;0.47;;
32780;SDS011;19136;47.032;15.502;2023-01-10T14:51:23;0.50;;;0.30;;
32780;SDS011;19136;47.032;15.502;2023-01-10T14:56:26;3.93;;;3.70;;
32780;SDS011;19136;47.032;15.502;2023-01-10T14:58:52;21.02;;;19.52;;
32780;SDS011;19136;47.032;15.502;2023-01-10T15:01:20;1.75;;;0.77;;
32780;SDS011;19136;47.032;15.502;2023-01-10T15:03:46;4.65;;;4.22;;
32780;SDS011;19136;47.032;15.502;2023-01-10T15:06:12;5.75;;;5.25;;
32780;SDS011;19136;47.032;15.502;2023-01-10T15:08:37;5.47;;;1.30;;
32780;SDS011;19136;47.032;15.502;2023-01-10T15:11:04;8.52;;;2.65;;
32780;SDS011;19136;47.032;15.502;2023-01-10T15:13:32;9.23;;;2.80;;
32780;SDS011;19136;47.032;15.502;2023-01-10T15:15:59;4.13;;;1.50;;
32780;SDS011;19136;47.032;15.502;2023-01-10T15:18:42;2.50;;;1.10;;
32780;SDS011;19136;47.032;15.502;2023-01-10T15:21:09;2.17;;;1.45;;
32780;SDS011;19136;47.032;15.502;2023-01-10T15:23:36;1.88;;;0.50;;
32780;SDS011;19136;47.032;15.502;2023-01-10T15:26:07;0.95;;;0.45;;
32780;SDS011;19136;47.032;15.502;2023-01-10T15:28:34;1.15;;;0.60;;
32780;SDS011;19136;47.032;15.502;2023-01-10T15:31:00;1.38;;;0.47;;
32780;SDS011;19136;47.032;15.502;2023-01-10T15:33:27;1.20;;;0.30;;
32780;SDS011;19136;47.032;15.502;2023-01-10T15:35:53;1.20;;;0.40;;
32780;SDS011;19136;47.032;15.502;2023-01-10T15:38:19;0.30;;;0.22;;
32780;SDS011;19136;47.032;15.502;2023-01-10T15:40:51;0.75;;;0.40;;
32780;SDS011;19136;47.032;15.502;2023-01-10T15:45:48;29.98;;;14.75;;
32780;SDS011;19136;47.032;15.502;2023-01-10T15:48:24;8.68;;;4.18;;
32780;SDS011;19136;47.032;15.502;2023-01-10T15:50:54;5.80;;;2.97;;
32780;SDS011;19136;47.032;15.502;2023-01-10T15:53:48;2.58;;;0.40;;
32780;SDS011;19136;47.032;15.502;2023-01-10T15:56:07;0.52;;;0.40;;
32780;SDS011;19136;47.032;15.502;2023-01-10T15:58:35;0.93;;;0.35;;
32780;SDS011;19136;47.032;15.502;2023-01-10T16:01:01;0.20;;;0.20;;
32780;SDS011;19136;47.032;15.502;2023-01-10T16:08:51;0.57;;;0.32;;
32780;SDS011;19136;47.032;15.502;2023-01-10T16:11:21;5.28;;;0.50;;
32780;SDS011;19136;47.032;15.502;2023-01-10T16:14:07;4.20;;;0.63;;
32780;SDS011;19136;47.032;15.502;2023-01-10T16:16:32;0.80;;;0.57;;
32780;SDS011;19136;47.032;15.502;2023-01-10T16:18:58;3.17;;;0.80;;
32780;SDS011;19136;47.032;15.502;2023-01-10T16:21:24;4.07;;;1.10;;
32780;SDS011;19136;47.032;15.502;2023-01-10T16:23:50;6.72;;;0.77;;
32780;SDS011;19136;47.032;15.502;2023-01-10T16:26:16;2.88;;;0.98;;
32780;SDS011;19136;47.032;15.502;2023-01-10T16:28:42;3.20;;;1.17;;
32780;SDS011;19136;47.032;15.502;2023-01-10T16:31:09;2.42;;;1.40;;
32780;SDS011;19136;47.032;15.502;2023-01-10T16:33:35;6.03;;;1.92;;
32780;SDS011;19136;47.032;15.502;2023-01-10T16:36:01;6.10;;;2.70;;